createdAt,value
2019-05-06T00:00:13.944Z,96277.61
2019-05-06T00:01:17.749Z,96284.17
2019-05-06T00:02:21.379Z,96277.83
2019-05-06T00:03:25.628Z,96282.45
2019-05-06T00:04:29.283Z,96283.23
2019-05-06T00:05:34.128Z,96277.83
2019-05-06T00:06:37.855Z,96276.06
2019-05-06T00:07:44.464Z,96283.95
2019-05-06T00:08:48.162Z,96281.63
2019-05-06T00:09:53.897Z,96283.58
2019-05-06T00:10:57.324Z,96281.99
2019-05-06T00:12:00.995Z,96279.70
2019-05-06T00:13:04.814Z,96280.69
2019-05-06T00:14:08.607Z,96284.21
2019-05-06T00:15:14.441Z,96287.50
2019-05-06T00:16:17.838Z,96284.80
2019-05-06T00:17:21.493Z,96285.95
2019-05-06T00:18:26.929Z,96280.17
2019-05-06T00:19:30.659Z,96272.83
2019-05-06T00:20:35.152Z,96280.17
2019-05-06T00:21:38.830Z,96285.94
2019-05-06T00:22:43.579Z,96281.72
2019-05-06T00:23:51.705Z,96284.02
2019-05-06T00:24:59.692Z,96281.89
2019-05-06T00:26:05.100Z,96280.31
2019-05-06T00:27:14.136Z,96274.70
2019-05-06T00:28:38.296Z,96272.41
2019-05-06T00:29:43.894Z,96274.71
2019-05-06T00:30:48.976Z,96264.30
2019-05-06T00:31:53.615Z,96271.02
2019-05-06T00:32:57.362Z,96268.72
2019-05-06T00:34:01.395Z,96271.22
2019-05-06T00:35:06.594Z,96271.59
2019-05-06T00:36:10.323Z,96270.45
2019-05-06T00:37:16.001Z,96272.41
2019-05-06T00:38:19.721Z,96262.75
2019-05-06T00:39:25.024Z,96265.09
2019-05-06T00:40:30.315Z,96260.87
2019-05-06T00:41:36.421Z,96258.53
2019-05-06T00:42:41.262Z,96259.52
2019-05-06T00:43:45.354Z,96258.91
2019-05-06T00:44:49.015Z,96255.41
2019-05-06T00:45:53.643Z,96257.91
2019-05-06T00:46:57.504Z,96255.38
2019-05-06T00:48:01.113Z,96255.20
2019-05-06T00:49:04.767Z,96250.37
2019-05-06T00:50:08.948Z,96254.07
2019-05-06T00:51:13.554Z,96248.88
2019-05-06T00:52:17.354Z,96250.63
2019-05-06T00:53:25.398Z,96250.83
2019-05-06T00:54:30.274Z,96263.38
2019-05-06T00:55:34.070Z,96251.61
2019-05-06T00:56:37.701Z,96262.22
2019-05-06T00:57:44.385Z,96257.80
2019-05-06T00:58:48.222Z,96259.11
2019-05-06T00:59:53.711Z,96254.11
2019-05-06T01:00:57.452Z,96255.84
2019-05-06T01:02:01.095Z,96257.39
2019-05-06T01:03:05.049Z,96247.76
2019-05-06T01:04:08.679Z,96252.02
2019-05-06T01:05:13.895Z,96247.76
2019-05-06T01:06:17.760Z,96252.02
2019-05-06T01:07:23.273Z,96249.31
2019-05-06T01:08:27.673Z,96251.41
2019-05-06T01:09:34.312Z,96253.54
2019-05-06T01:10:37.682Z,96260.51
2019-05-06T01:11:41.829Z,96267.42
2019-05-06T01:12:49.843Z,96265.09
2019-05-06T01:13:55.130Z,96263.73
2019-05-06T01:14:59.631Z,96258.53
2019-05-06T01:16:04.241Z,96264.11
2019-05-06T01:17:08.115Z,96261.61
2019-05-06T01:18:13.882Z,96261.81
2019-05-06T01:19:17.551Z,96264.72
2019-05-06T01:20:21.183Z,96260.87
2019-05-06T01:21:27.181Z,96259.89
2019-05-06T01:22:30.865Z,96259.52
2019-05-06T01:23:34.496Z,96259.27
2019-05-06T01:24:38.136Z,96260.41
2019-05-06T01:25:43.720Z,96257.28
2019-05-06T01:26:47.548Z,96254.01
2019-05-06T01:27:51.317Z,96256.55
2019-05-06T01:28:57.637Z,96260.42
2019-05-06T01:30:01.307Z,96258.32
2019-05-06T01:31:04.939Z,96262.58
2019-05-06T01:32:08.698Z,96256.61
2019-05-06T01:33:14.469Z,96262.80
2019-05-06T01:34:17.776Z,96261.07
2019-05-06T01:35:21.544Z,96262.22
2019-05-06T01:36:25.352Z,96262.22
2019-05-06T01:37:29.358Z,96261.28
2019-05-06T01:38:49.991Z,96262.59
2019-05-06T01:39:55.361Z,96261.65
2019-05-06T01:41:16.841Z,96260.88
2019-05-06T01:42:34.583Z,96270.73
2019-05-06T01:43:43.887Z,96265.28
2019-05-06T01:44:48.629Z,96266.07
2019-05-06T01:45:53.660Z,96261.08
2019-05-06T01:46:57.519Z,96265.51
2019-05-06T01:48:01.266Z,96259.31
2019-05-06T01:49:05.187Z,96260.67
2019-05-06T01:50:09.653Z,96259.31
2019-05-06T01:51:14.310Z,96260.30
2019-05-06T01:52:17.995Z,96260.09
2019-05-06T01:53:21.882Z,96259.31
2019-05-06T01:54:25.558Z,96256.23
2019-05-06T01:55:29.253Z,96259.92
2019-05-06T01:56:33.718Z,96252.77
2019-05-06T01:57:37.669Z,96249.86
2019-05-06T01:58:41.498Z,96259.14
2019-05-06T01:59:45.134Z,96253.33
2019-05-06T02:00:48.814Z,96253.73
2019-05-06T02:01:58.025Z,96255.84
2019-05-06T02:02:58.178Z,96256.77
2019-05-06T02:04:01.811Z,96251.98
2019-05-06T02:05:06.872Z,96256.81
2019-05-06T02:06:10.638Z,96250.42
2019-05-06T02:07:14.536Z,96254.69
2019-05-06T02:08:18.305Z,96245.80
2019-05-06T02:09:21.967Z,96252.35
2019-05-06T02:10:25.597Z,96250.83
2019-05-06T02:11:29.262Z,96254.11
2019-05-06T02:12:34.215Z,96249.84
2019-05-06T02:13:38.079Z,96249.23
2019-05-06T02:14:43.684Z,96247.52
2019-05-06T02:15:47.134Z,96251.98
2019-05-06T02:16:50.899Z,96254.48
2019-05-06T02:17:55.190Z,96249.27
2019-05-06T02:18:58.918Z,96256.03
2019-05-06T02:20:04.191Z,96255.09
2019-05-06T02:21:09.720Z,96250.06
2019-05-06T02:22:15.041Z,96250.47
2019-05-06T02:23:37.153Z,96248.13
2019-05-06T02:24:54.846Z,96245.83
2019-05-06T02:25:58.654Z,96249.89
2019-05-06T02:27:04.370Z,96247.76
2019-05-06T02:28:07.706Z,96246.00
2019-05-06T02:29:21.732Z,96244.65
2019-05-06T02:30:45.120Z,96247.75
2019-05-06T02:32:07.174Z,96243.70
2019-05-06T02:33:07.864Z,96247.76
2019-05-06T02:34:25.187Z,96251.98
2019-05-06T02:35:29.368Z,96246.17
2019-05-06T02:36:37.629Z,96241.33
2019-05-06T02:37:46.562Z,96241.11
2019-05-06T02:38:54.743Z,96247.45
2019-05-06T02:39:56.236Z,96247.45
2019-05-06T02:41:03.171Z,96252.61
2019-05-06T02:42:08.063Z,96252.03
2019-05-06T02:43:13.584Z,96252.05
2019-05-06T02:44:17.569Z,96251.87
2019-05-06T02:45:23.963Z,96254.75
2019-05-06T02:46:27.134Z,96254.94
2019-05-06T02:47:42.927Z,96257.44
2019-05-06T02:48:48.558Z,96249.70
2019-05-06T02:49:59.617Z,96254.21
2019-05-06T02:51:04.948Z,96257.66
2019-05-06T02:52:08.751Z,96257.50
2019-05-06T02:53:13.305Z,96253.66
2019-05-06T02:54:17.262Z,96255.23
2019-05-06T02:55:23.412Z,96257.22
2019-05-06T02:56:26.496Z,96268.61
2019-05-06T02:57:33.234Z,96263.61
2019-05-06T02:58:35.541Z,96264.00
2019-05-06T02:59:39.176Z,96263.83
2019-05-06T03:00:43.197Z,96260.34
2019-05-06T03:01:47.018Z,96263.00
2019-05-06T03:02:53.847Z,96264.93
2019-05-06T03:03:55.999Z,96266.10
2019-05-06T03:04:59.732Z,96263.58
2019-05-06T03:06:04.137Z,96266.47
2019-05-06T03:07:08.315Z,96264.14
2019-05-06T03:08:13.492Z,96261.27
2019-05-06T03:09:17.347Z,96265.74
2019-05-06T03:10:24.384Z,96267.47
2019-05-06T03:11:26.617Z,96262.48
2019-05-06T03:12:33.323Z,96259.00
2019-05-06T03:13:37.842Z,96258.22
2019-05-06T03:14:43.682Z,96260.63
2019-05-06T03:15:46.917Z,96262.17
2019-05-06T03:16:53.878Z,96264.67
2019-05-06T03:17:55.923Z,96259.42
2019-05-06T03:18:59.962Z,96265.39
2019-05-06T03:20:05.751Z,96269.64
2019-05-06T03:21:19.987Z,96269.08
2019-05-06T03:22:43.916Z,96264.30
2019-05-06T03:23:49.409Z,96275.36
2019-05-06T03:24:55.295Z,96270.73
2019-05-06T03:25:58.920Z,96268.72
2019-05-06T03:27:04.648Z,96273.91
2019-05-06T03:28:07.931Z,96268.67
2019-05-06T03:29:13.681Z,96272.16
2019-05-06T03:30:17.378Z,96272.59
2019-05-06T03:31:25.775Z,96271.51
2019-05-06T03:32:30.616Z,96269.19
2019-05-06T03:33:54.136Z,96277.70
2019-05-06T03:34:58.550Z,96272.88
2019-05-06T03:35:57.779Z,96272.50
2019-05-06T03:36:49.212Z,96271.53
2019-05-06T03:37:53.543Z,96273.09
2019-05-06T03:38:57.322Z,96284.05
2019-05-06T03:40:02.949Z,96281.14
2019-05-06T03:41:06.473Z,96283.48
2019-05-06T03:42:13.677Z,96287.38
2019-05-06T03:43:16.049Z,96284.48
2019-05-06T03:44:23.625Z,96287.80
2019-05-06T03:45:27.345Z,96286.82
2019-05-06T03:46:35.195Z,96284.90
2019-05-06T03:47:49.503Z,96287.24
2019-05-06T03:48:57.872Z,96287.86
2019-05-06T03:50:04.679Z,96291.13
2019-05-06T03:51:07.101Z,96285.32
2019-05-06T03:52:13.485Z,96288.63
2019-05-06T03:53:24.903Z,96284.74
2019-05-06T03:54:29.808Z,96282.61
2019-05-06T03:55:34.342Z,96278.17
2019-05-06T03:56:38.474Z,96272.56
2019-05-06T03:57:42.920Z,96280.84
2019-05-06T03:58:48.103Z,96284.13
2019-05-06T03:59:53.136Z,96287.44
2019-05-06T04:00:58.209Z,96285.52
2019-05-06T04:02:05.102Z,96296.13
2019-05-06T04:03:07.677Z,96289.78
2019-05-06T04:04:12.656Z,96296.48
2019-05-06T04:05:16.454Z,96293.93
2019-05-06T04:06:24.050Z,96290.66
2019-05-06T04:07:28.286Z,96286.25
2019-05-06T04:08:34.286Z,96284.33
2019-05-06T04:09:38.047Z,96288.58
2019-05-06T04:10:43.607Z,96287.44
2019-05-06T04:11:47.420Z,96283.13
2019-05-06T04:12:53.426Z,96281.61
2019-05-06T04:13:57.433Z,96280.05
2019-05-06T04:15:04.018Z,96285.05
2019-05-06T04:16:27.549Z,96284.31
2019-05-06T04:17:35.264Z,96285.66
2019-05-06T04:18:57.040Z,96281.25
2019-05-06T04:20:05.542Z,96282.41
2019-05-06T04:21:19.491Z,96285.92
2019-05-06T04:22:24.962Z,96280.52
2019-05-06T04:23:33.185Z,96276.06
2019-05-06T04:24:43.894Z,96272.58
2019-05-06T04:26:03.558Z,96270.85
2019-05-06T04:27:34.725Z,96271.59
2019-05-06T04:28:39.138Z,96266.59
2019-05-06T04:29:42.947Z,96269.10
2019-05-06T04:30:47.199Z,96268.94
2019-05-06T04:31:53.690Z,96271.64
2019-05-06T04:32:57.081Z,96276.31
2019-05-06T04:34:09.957Z,96272.67
2019-05-06T04:35:06.517Z,96276.93
2019-05-06T04:36:12.991Z,96264.97
2019-05-06T04:37:16.545Z,96272.30
2019-05-06T04:38:23.252Z,96272.47
2019-05-06T04:39:26.396Z,96271.85
2019-05-06T04:40:32.938Z,96282.23
2019-05-06T04:41:35.671Z,96276.36
2019-05-06T04:42:39.293Z,96274.72
2019-05-06T04:43:43.917Z,96276.06
2019-05-06T04:44:47.912Z,96288.16
2019-05-06T04:45:54.076Z,96282.03
2019-05-06T04:46:57.289Z,96282.25
2019-05-06T04:48:03.484Z,96282.67
2019-05-06T04:49:10.497Z,96286.34
2019-05-06T04:50:13.143Z,96285.94
2019-05-06T04:51:17.570Z,96283.60
2019-05-06T04:52:26.113Z,96277.72
2019-05-06T04:53:28.882Z,96276.55
2019-05-06T04:54:35.638Z,96275.00
2019-05-06T04:55:39.275Z,96272.66
2019-05-06T04:56:43.800Z,96277.39
2019-05-06T04:57:49.394Z,96272.13
2019-05-06T04:58:54.002Z,96279.02
2019-05-06T04:59:57.795Z,96276.63
2019-05-06T05:01:04.127Z,96276.59
2019-05-06T05:02:07.385Z,96273.70
2019-05-06T05:03:13.703Z,96274.91
2019-05-06T05:04:28.281Z,96272.88
2019-05-06T05:05:24.252Z,96271.22
2019-05-06T05:06:27.914Z,96268.98
2019-05-06T05:07:33.466Z,96262.64
2019-05-06T05:08:37.725Z,96269.59
2019-05-06T05:09:42.932Z,96278.50
2019-05-06T05:10:53.057Z,96278.54
2019-05-06T05:11:57.825Z,96278.34
2019-05-06T05:13:03.610Z,96275.78
2019-05-06T05:14:09.024Z,96274.60
2019-05-06T05:15:32.515Z,96268.98
2019-05-06T05:16:42.097Z,96275.69
2019-05-06T05:17:47.620Z,96269.17
2019-05-06T05:18:53.132Z,96273.45
2019-05-06T05:19:59.333Z,96270.23
2019-05-06T05:21:03.102Z,96272.58
2019-05-06T05:22:06.803Z,96268.78
2019-05-06T05:23:11.888Z,96268.82
2019-05-06T05:24:16.348Z,96276.33
2019-05-06T05:25:22.113Z,96278.24
2019-05-06T05:26:25.350Z,96275.74
2019-05-06T05:27:29.175Z,96279.02
2019-05-06T05:28:32.905Z,96277.88
2019-05-06T05:29:36.877Z,96283.50
2019-05-06T05:30:43.032Z,96280.45
2019-05-06T05:31:46.878Z,96282.22
2019-05-06T05:32:52.104Z,96281.27
2019-05-06T05:33:56.132Z,96281.87
2019-05-06T05:35:01.898Z,96280.34
2019-05-06T05:36:05.355Z,96276.09
2019-05-06T05:37:08.984Z,96279.98
2019-05-06T05:38:13.213Z,96278.62
2019-05-06T05:39:17.050Z,96282.86
2019-05-06T05:40:22.545Z,96279.95
2019-05-06T05:41:26.290Z,96279.17
2019-05-06T05:42:46.603Z,96274.73
2019-05-06T05:43:54.883Z,96273.41
2019-05-06T05:44:58.645Z,96275.59
2019-05-06T05:46:03.082Z,96270.16
2019-05-06T05:47:06.733Z,96269.22
2019-05-06T05:48:32.423Z,96276.58
2019-05-06T05:49:37.243Z,96272.10
2019-05-06T05:50:42.534Z,96278.48
2019-05-06T05:51:46.219Z,96279.84
2019-05-06T05:52:51.952Z,96278.88
2019-05-06T05:53:55.373Z,96278.47
2019-05-06T05:54:59.133Z,96277.52
2019-05-06T05:56:02.935Z,96280.42
2019-05-06T05:57:06.639Z,96277.52
2019-05-06T05:58:12.802Z,96278.52
2019-05-06T05:59:15.741Z,96275.03
2019-05-06T06:00:19.852Z,96280.42
2019-05-06T06:01:25.090Z,96284.30
2019-05-06T06:02:28.756Z,96284.13
2019-05-06T06:03:32.979Z,96283.54
2019-05-06T06:04:36.617Z,96280.42
2019-05-06T06:05:42.662Z,96276.76
2019-05-06T06:06:45.998Z,96280.03
2019-05-06T06:07:49.680Z,96278.68
2019-05-06T06:08:56.668Z,96273.25
2019-05-06T06:10:08.043Z,96277.28
2019-05-06T06:11:23.006Z,96274.77
2019-05-06T06:12:29.458Z,96276.88
2019-05-06T06:13:33.125Z,96269.07
2019-05-06T06:14:48.477Z,96270.27
2019-05-06T06:15:53.762Z,96271.66
2019-05-06T06:17:05.647Z,96272.25
2019-05-06T06:18:27.672Z,96270.92
2019-05-06T06:19:43.507Z,96272.09
2019-05-06T06:21:17.857Z,96269.18
2019-05-06T06:22:15.293Z,96267.61
2019-05-06T06:23:23.126Z,96267.81
2019-05-06T06:24:29.180Z,96267.39
2019-05-06T06:25:33.527Z,96269.47
2019-05-06T06:26:37.612Z,96271.44
2019-05-06T06:27:52.117Z,96270.69
2019-05-06T06:28:56.198Z,96268.00
2019-05-06T06:30:02.220Z,96270.72
2019-05-06T06:31:23.004Z,96270.31
2019-05-06T06:32:32.579Z,96267.03
2019-05-06T06:33:36.391Z,96268.77
2019-05-06T06:35:10.090Z,96260.63
2019-05-06T06:36:07.688Z,96268.53
2019-05-06T06:37:13.310Z,96269.41
2019-05-06T06:38:24.821Z,96261.70
2019-05-06T06:39:30.123Z,96265.63
2019-05-06T06:40:33.823Z,96264.11
2019-05-06T06:41:37.772Z,96268.59
2019-05-06T06:42:42.748Z,96273.24
2019-05-06T06:43:48.534Z,96285.85
2019-05-06T06:44:55.563Z,96294.55
2019-05-06T06:46:02.523Z,96297.09
2019-05-06T06:47:05.820Z,96303.84
2019-05-06T06:48:09.648Z,96313.72
2019-05-06T06:49:13.447Z,96305.98
2019-05-06T06:50:17.204Z,96309.28
2019-05-06T06:51:23.193Z,96311.79
2019-05-06T06:52:26.350Z,96320.08
2019-05-06T06:53:30.138Z,96320.85
2019-05-06T06:54:33.865Z,96317.92
2019-05-06T06:55:38.967Z,96327.54
2019-05-06T06:56:44.293Z,96329.84
2019-05-06T06:57:51.953Z,96331.91
2019-05-06T06:59:08.959Z,96334.77
2019-05-06T07:00:14.964Z,96330.72
2019-05-06T07:01:23.383Z,96329.31
2019-05-06T07:02:28.400Z,96326.14
2019-05-06T07:03:40.139Z,96325.86
2019-05-06T07:04:52.999Z,96321.89
2019-05-06T07:06:02.339Z,96322.70
2019-05-06T07:07:06.581Z,96314.41
2019-05-06T07:08:12.549Z,96321.64
2019-05-06T07:09:16.063Z,96319.39
2019-05-06T07:10:37.930Z,96316.80
2019-05-06T07:11:42.827Z,96308.34
2019-05-06T07:12:46.721Z,96309.17
2019-05-06T07:13:55.850Z,96307.95
2019-05-06T07:15:02.576Z,96306.52
2019-05-06T07:16:06.379Z,96298.83
2019-05-06T07:17:13.426Z,96287.14
2019-05-06T07:18:17.145Z,96282.23
2019-05-06T07:19:22.949Z,96282.97
2019-05-06T07:20:32.485Z,96278.06
2019-05-06T07:21:43.367Z,96275.78
2019-05-06T07:22:45.958Z,96265.34
2019-05-06T07:23:54.018Z,96265.34
2019-05-06T07:24:57.744Z,96271.39
2019-05-06T07:26:05.876Z,96273.00
2019-05-06T07:27:15.725Z,96277.39
2019-05-06T07:28:25.301Z,96282.23
2019-05-06T07:29:28.922Z,96284.89
2019-05-06T07:30:33.853Z,96285.55
2019-05-06T07:31:37.549Z,96287.25
2019-05-06T07:32:44.260Z,96295.13
2019-05-06T07:33:52.090Z,96297.03
2019-05-06T07:34:53.813Z,96307.41
2019-05-06T07:35:57.648Z,96314.02
2019-05-06T07:37:03.464Z,96305.85
2019-05-06T07:38:06.677Z,96302.87
2019-05-06T07:39:14.735Z,96295.67
2019-05-06T07:40:15.733Z,96290.34
2019-05-06T07:41:23.521Z,96290.34
2019-05-06T07:42:34.347Z,96292.72
2019-05-06T07:43:46.658Z,96282.51
2019-05-06T07:44:58.115Z,96285.39
2019-05-06T07:46:03.862Z,96282.37
2019-05-06T07:47:21.081Z,96283.72
2019-05-06T07:48:24.931Z,96282.74
2019-05-06T07:49:28.676Z,96278.05
2019-05-06T07:50:33.219Z,96273.16
2019-05-06T07:51:37.016Z,96277.80
2019-05-06T07:52:42.652Z,96269.43
2019-05-06T07:53:46.331Z,96276.79
2019-05-06T07:54:49.982Z,96271.95
2019-05-06T07:55:53.709Z,96270.30
2019-05-06T07:56:57.810Z,96266.16
2019-05-06T07:58:02.921Z,96263.31
2019-05-06T07:59:09.828Z,96260.52
2019-05-06T08:00:14.035Z,96255.27
2019-05-06T08:01:17.747Z,96250.56
2019-05-06T08:02:22.921Z,96260.33
2019-05-06T08:03:26.847Z,96257.89
2019-05-06T08:04:32.449Z,96254.06
2019-05-06T08:05:36.030Z,96257.00
2019-05-06T08:06:39.760Z,96252.48
2019-05-06T08:07:47.440Z,96254.83
2019-05-06T08:08:53.662Z,96257.52
2019-05-06T08:09:56.662Z,96251.34
2019-05-06T08:11:02.490Z,96253.99
2019-05-06T08:12:06.310Z,96250.94
2019-05-06T08:13:09.977Z,96256.43
2019-05-06T08:14:13.862Z,96253.66
2019-05-06T08:15:18.091Z,96248.16
2019-05-06T08:16:22.569Z,96254.85
2019-05-06T08:17:28.095Z,96249.16
2019-05-06T08:18:33.050Z,96247.45
2019-05-06T08:19:37.322Z,96247.98
2019-05-06T08:20:42.740Z,96246.23
2019-05-06T08:21:48.217Z,96243.59
2019-05-06T08:22:56.411Z,96250.13
2019-05-06T08:23:58.924Z,96251.42
2019-05-06T08:25:04.224Z,96248.08
2019-05-06T08:26:12.782Z,96256.27
2019-05-06T08:28:16.187Z,96256.01
2019-05-06T08:29:19.812Z,96254.54
2019-05-06T08:30:23.523Z,96261.33
2019-05-06T08:31:27.557Z,96256.86
2019-05-06T08:32:32.131Z,96261.98
2019-05-06T08:33:36.033Z,96252.88
2019-05-06T08:34:42.021Z,96262.33
2019-05-06T08:35:45.230Z,96255.75
2019-05-06T08:36:50.494Z,96248.97
2019-05-06T08:37:56.487Z,96255.56
2019-05-06T08:39:02.818Z,96252.89
2019-05-06T08:40:08.518Z,96248.63
2019-05-06T08:41:13.794Z,96248.33
2019-05-06T08:42:17.486Z,96247.83
2019-05-06T08:43:21.972Z,96248.74
2019-05-06T08:44:25.811Z,96244.16
2019-05-06T08:45:29.464Z,96246.39
2019-05-06T08:46:33.712Z,96243.37
2019-05-06T08:47:37.690Z,96241.02
2019-05-06T08:48:42.860Z,96238.88
2019-05-06T08:50:03.391Z,96244.70
2019-05-06T08:51:09.190Z,96250.14
2019-05-06T08:52:14.606Z,96241.73
2019-05-06T08:53:25.687Z,96243.25
2019-05-06T08:54:34.190Z,96238.52
2019-05-06T08:55:42.439Z,96237.91
2019-05-06T08:56:46.189Z,96236.95
2019-05-06T08:57:49.815Z,96224.76
2019-05-06T08:58:53.473Z,96229.59
2019-05-06T08:59:57.167Z,96223.11
2019-05-06T09:01:08.469Z,96220.05
2019-05-06T09:02:14.152Z,96215.47
2019-05-06T09:03:17.792Z,96213.17
2019-05-06T09:04:22.774Z,96214.05
2019-05-06T09:05:26.726Z,96210.19
2019-05-06T09:06:34.061Z,96207.80
2019-05-06T09:07:35.700Z,96209.66
2019-05-06T09:08:39.352Z,96205.08
2019-05-06T09:09:43.010Z,96201.57
2019-05-06T09:10:46.599Z,96198.10
2019-05-06T09:11:50.264Z,96197.83
2019-05-06T09:12:53.903Z,96201.20
2019-05-06T09:13:57.540Z,96201.23
2019-05-06T09:15:03.522Z,96200.46
2019-05-06T09:16:06.618Z,96197.71
2019-05-06T09:17:12.054Z,96197.22
2019-05-06T09:18:15.936Z,96193.09
2019-05-06T09:19:19.663Z,96185.03
2019-05-06T09:20:27.505Z,96184.36
2019-05-06T09:21:33.433Z,96180.83
2019-05-06T09:22:36.662Z,96182.63
2019-05-06T09:23:42.352Z,96181.47
2019-05-06T09:24:45.797Z,96172.70
2019-05-06T09:25:49.505Z,96176.25
2019-05-06T09:26:54.837Z,96165.17
2019-05-06T09:28:13.149Z,96173.70
2019-05-06T09:29:23.066Z,96170.59
2019-05-06T09:30:43.200Z,96158.80
2019-05-06T09:31:48.681Z,96170.70
2019-05-06T09:32:52.354Z,96161.74
2019-05-06T09:34:02.526Z,96155.98
2019-05-06T09:35:07.524Z,96156.89
2019-05-06T09:36:12.746Z,96156.72
2019-05-06T09:37:18.271Z,96156.31
2019-05-06T09:38:22.816Z,96143.98
2019-05-06T09:39:27.085Z,96142.39
2019-05-06T09:40:31.879Z,96136.50
2019-05-06T09:41:35.903Z,96140.41
2019-05-06T09:42:39.582Z,96132.37
2019-05-06T09:43:43.509Z,96137.39
2019-05-06T09:44:50.472Z,96131.75
2019-05-06T09:45:53.337Z,96128.63
2019-05-06T09:46:57.057Z,96125.95
2019-05-06T09:48:03.576Z,96128.99
2019-05-06T09:49:22.934Z,96125.38
2019-05-06T09:50:46.145Z,96126.51
2019-05-06T09:51:47.817Z,96123.91
2019-05-06T09:52:52.876Z,96111.95
2019-05-06T09:54:13.411Z,96119.72
2019-05-06T09:55:36.933Z,96117.88
2019-05-06T09:56:42.804Z,96123.56
2019-05-06T09:58:08.290Z,96110.39
2019-05-06T09:59:12.913Z,96108.23
2019-05-06T10:00:18.319Z,96105.94
2019-05-06T10:01:22.501Z,96112.06
2019-05-06T10:02:26.359Z,96109.69
2019-05-06T10:03:32.119Z,96111.06
2019-05-06T10:04:35.431Z,96096.73
2019-05-06T10:05:39.179Z,96106.29
2019-05-06T10:06:55.658Z,96097.32
2019-05-06T10:07:48.351Z,96108.50
2019-05-06T10:08:52.348Z,96103.77
2019-05-06T10:09:56.000Z,96099.04
2019-05-06T10:11:00.116Z,96092.77
2019-05-06T10:12:03.811Z,96094.91
2019-05-06T10:13:07.504Z,96085.90
2019-05-06T10:14:12.903Z,96082.98
2019-05-06T10:15:17.896Z,96083.58
2019-05-06T10:16:24.487Z,96088.33
2019-05-06T10:17:30.138Z,96079.31
2019-05-06T10:18:33.913Z,96083.56
2019-05-06T10:19:38.327Z,96080.82
2019-05-06T10:20:47.004Z,96068.60
2019-05-06T10:21:52.889Z,96065.26
2019-05-06T10:22:56.123Z,96061.89
2019-05-06T10:24:05.224Z,96062.80
2019-05-06T10:25:08.984Z,96061.97
2019-05-06T10:26:13.052Z,96060.43
2019-05-06T10:27:18.851Z,96073.39
2019-05-06T10:28:26.835Z,96076.94
2019-05-06T10:29:36.348Z,96075.88
2019-05-06T10:30:40.229Z,96097.70
2019-05-06T10:31:48.071Z,96090.63
2019-05-06T10:32:53.380Z,96099.05
2019-05-06T10:34:14.334Z,96124.25
2019-05-06T10:35:18.519Z,96106.72
2019-05-06T10:36:23.660Z,96104.20
2019-05-06T10:37:43.301Z,96114.56
2019-05-06T10:39:02.347Z,96113.70
2019-05-06T10:40:13.488Z,96121.86
2019-05-06T10:41:22.188Z,96125.93
2019-05-06T10:42:28.485Z,96129.03
2019-05-06T10:43:46.938Z,96134.97
2019-05-06T10:45:12.443Z,96140.41
2019-05-06T10:46:18.732Z,96135.05
2019-05-06T10:47:22.692Z,96137.68
2019-05-06T10:48:26.513Z,96137.60
2019-05-06T10:49:30.199Z,96132.91
2019-05-06T10:50:35.502Z,96127.77
2019-05-06T10:51:50.043Z,96119.06
2019-05-06T10:53:07.291Z,96119.48
2019-05-06T10:54:12.229Z,96120.59
2019-05-06T10:55:16.122Z,96120.93
2019-05-06T10:56:27.488Z,96131.08
2019-05-06T10:57:35.760Z,96129.45
2019-05-06T10:58:39.444Z,96137.66
2019-05-06T10:59:43.146Z,96138.28
2019-05-06T11:00:53.004Z,96135.13
2019-05-06T11:02:05.027Z,96149.25
2019-05-06T11:03:14.917Z,96152.52
2019-05-06T11:04:18.880Z,96159.25
2019-05-06T11:05:22.646Z,96161.13
2019-05-06T11:06:26.389Z,96170.67
2019-05-06T11:07:34.516Z,96174.56
2019-05-06T11:08:35.480Z,96165.22
2019-05-06T11:09:39.262Z,96184.41
2019-05-06T11:10:45.480Z,96173.02
2019-05-06T11:11:48.276Z,96167.84
2019-05-06T11:12:52.348Z,96168.14
2019-05-06T11:13:56.167Z,96161.06
2019-05-06T11:14:59.839Z,96169.34
2019-05-06T11:16:03.579Z,96178.30
2019-05-06T11:17:07.197Z,96167.16
2019-05-06T11:18:13.529Z,96177.11
2019-05-06T11:19:17.504Z,96177.98
2019-05-06T11:20:23.931Z,96191.34
2019-05-06T11:21:26.549Z,96191.55
2019-05-06T11:22:32.501Z,96205.70
2019-05-06T11:23:35.559Z,96206.65
2019-05-06T11:24:39.217Z,96216.01
2019-05-06T11:25:43.345Z,96213.78
2019-05-06T11:26:47.204Z,96210.61
2019-05-06T11:27:52.696Z,96212.22
2019-05-06T11:28:58.274Z,96211.16
2019-05-06T11:30:06.406Z,96204.27
2019-05-06T11:31:14.825Z,96210.28
2019-05-06T11:32:29.129Z,96211.84
2019-05-06T11:33:52.506Z,96206.21
2019-05-06T11:34:57.558Z,96207.19
2019-05-06T11:36:12.284Z,96208.14
2019-05-06T11:37:24.663Z,96211.24
2019-05-06T11:38:28.318Z,96216.47
2019-05-06T11:39:32.315Z,96222.32
2019-05-06T11:40:36.018Z,96211.13
2019-05-06T11:41:59.177Z,96204.94
2019-05-06T11:42:47.237Z,96195.63
2019-05-06T11:43:52.208Z,96192.70
2019-05-06T11:44:56.037Z,96186.86
2019-05-06T11:45:59.985Z,96182.72
2019-05-06T11:47:12.482Z,96189.05
2019-05-06T11:48:22.512Z,96186.88
2019-05-06T11:49:26.321Z,96185.72
2019-05-06T11:50:30.284Z,96185.94
2019-05-06T11:51:35.358Z,96192.98
2019-05-06T11:52:39.054Z,96197.55
2019-05-06T11:53:42.692Z,96200.27
2019-05-06T11:54:46.524Z,96209.74
2019-05-06T11:55:54.407Z,96207.12
2019-05-06T11:56:58.378Z,96208.80
2019-05-06T11:58:02.550Z,96214.98
2019-05-06T11:59:06.498Z,96213.27
2019-05-06T12:00:12.661Z,96214.45
2019-05-06T12:01:20.646Z,96212.09
2019-05-06T12:02:25.570Z,96212.31
2019-05-06T12:03:32.731Z,96210.02
2019-05-06T12:04:38.905Z,96219.20
2019-05-06T12:05:42.610Z,96224.42
2019-05-06T12:06:46.256Z,96213.55
2019-05-06T12:08:01.813Z,96219.44
2019-05-06T12:08:55.489Z,96215.84
2019-05-06T12:09:59.126Z,96216.69
2019-05-06T12:11:03.103Z,96213.48
2019-05-06T12:12:06.913Z,96209.94
2019-05-06T12:13:12.255Z,96216.31
2019-05-06T12:14:16.057Z,96217.18
2019-05-06T12:15:20.252Z,96214.63
2019-05-06T12:16:25.979Z,96214.84
2019-05-06T12:17:32.253Z,96216.84
2019-05-06T12:18:35.907Z,96211.77
2019-05-06T12:19:39.949Z,96210.00
2019-05-06T12:20:43.582Z,96210.31
2019-05-06T12:21:47.238Z,96210.09
2019-05-06T12:22:52.866Z,96215.22
2019-05-06T12:23:56.363Z,96210.77
2019-05-06T12:25:00.001Z,96208.22
2019-05-06T12:26:03.660Z,96200.70
2019-05-06T12:27:07.294Z,96198.66
2019-05-06T12:28:12.364Z,96193.42
2019-05-06T12:29:16.243Z,96197.71
2019-05-06T12:30:23.160Z,96190.81
2019-05-06T12:31:27.109Z,96194.38
2019-05-06T12:32:33.104Z,96197.31
2019-05-06T12:33:42.715Z,96199.13
2019-05-06T12:34:46.683Z,96203.03
2019-05-06T12:35:52.040Z,96209.44
2019-05-06T12:36:59.893Z,96212.53
2019-05-06T12:38:16.169Z,96218.53
2019-05-06T12:39:17.573Z,96213.69
2019-05-06T12:40:20.360Z,96208.88
2019-05-06T12:41:25.328Z,96195.52
2019-05-06T12:42:32.981Z,96194.17
2019-05-06T12:43:37.664Z,96182.56
2019-05-06T12:44:41.780Z,96176.75
2019-05-06T12:46:05.447Z,96174.81
2019-05-06T12:47:16.813Z,96181.02
2019-05-06T12:48:22.546Z,96185.84
2019-05-06T12:49:26.309Z,96184.89
2019-05-06T12:50:33.425Z,96187.95
2019-05-06T12:51:37.158Z,96189.31
2019-05-06T12:52:44.178Z,96187.75
2019-05-06T12:53:46.938Z,96197.81
2019-05-06T12:54:53.816Z,96196.84
2019-05-06T12:55:56.453Z,96196.45
2019-05-06T12:57:03.027Z,96190.64
2019-05-06T12:58:05.801Z,96193.34